Time;durP1;ratioP1;P1;durP2;ratioP2;P2;SDS_P1;SDS_P2;PMS_P1;PMS_P2;Temp;Humidity;BMP_temperature;BMP_pressure;BME280_temperature;BME280_humidity;BME280_pressure;Samples;Min_cycle;Max_cycle;Signal;HPM_P1;HPM_P2
2021/08/26 00:06:25;;;;;;;11.60;9.10;;;;;;;18.69;72.32;94927.25;5049066;28;20295;-74
2021/08/26 00:08:54;;;;;;;11.90;9.27;;;;;;;19.05;71.12;94927.88;5049658;28;20437;-75
2021/08/26 00:11:25;;;;;;;11.33;9.00;;;;;;;19.16;70.68;94918.53;5049107;28;20971;-75
2021/08/26 00:13:53;;;;;;;10.83;9.47;;;;;;;19.10;71.02;94924.31;5037934;28;20875;-76
2021/08/26 00:16:24;;;;;;;11.43;8.90;;;;;;;19.26;69.98;94911.38;5042939;28;20197;-74
2021/08/26 00:18:51;;;;;;;12.67;8.57;;;;;;;19.19;69.81;94922.47;5029525;28;20300;-74
2021/08/26 00:21:18;;;;;;;10.37;8.57;;;;;;;19.33;69.68;94911.72;5030095;28;20432;-76
2021/08/26 00:23:45;;;;;;;10.27;8.70;;;;;;;19.21;68.99;94921.03;5050137;28;20254;-75
2021/08/26 00:26:13;;;;;;;9.53;8.03;;;;;;;18.95;70.37;94917.53;5036509;28;20443;-75
2021/08/26 00:28:40;;;;;;;9.73;8.73;;;;;;;18.89;70.49;94924.06;5030594;28;20479;-75
2021/08/26 00:31:07;;;;;;;10.17;8.67;;;;;;;18.87;70.25;94905.00;5032053;28;20204;-75
2021/08/26 00:33:36;;;;;;;10.90;7.33;;;;;;;19.05;70.19;94906.63;5035604;28;20434;-74
2021/08/26 00:36:03;;;;;;;9.50;7.80;;;;;;;18.98;69.75;94906.28;5049508;28;20561;-76
2021/08/26 00:38:30;;;;;;;12.70;7.90;;;;;;;19.02;69.64;94901.94;5049279;28;20227;-74
2021/08/26 00:41:00;;;;;;;10.60;7.63;;;;;;;18.90;69.49;94904.38;5040608;28;20217;-74
2021/08/26 00:43:31;;;;;;;11.13;7.63;;;;;;;18.95;69.78;94908.78;5044898;28;20578;-74
2021/08/26 00:45:58;;;;;;;8.13;7.33;;;;;;;18.76;70.62;94911.66;5049226;28;20446;-74
2021/08/26 00:48:29;;;;;;;8.60;7.70;;;;;;;18.78;70.17;94906.84;5049927;28;20660;-75
2021/08/26 00:50:57;;;;;;;10.93;7.17;;;;;;;18.81;69.60;94900.91;5035182;28;20271;-75
2021/08/26 00:53:24;;;;;;;9.67;7.40;;;;;;;18.76;70.52;94914.31;5038685;28;20220;-75
2021/08/26 00:55:55;;;;;;;8.87;7.43;;;;;;;18.71;70.54;94925.06;5047147;28;20431;-75
2021/08/26 00:58:22;;;;;;;11.13;8.40;;;;;;;18.79;69.57;94908.41;5049429;28;20212;-73
2021/08/26 01:00:52;;;;;;;9.83;7.63;;;;;;;18.81;69.54;94908.88;5048933;28;20936;-75
2021/08/26 01:03:28;;;;;;;8.83;7.33;;;;;;;19.01;69.11;94899.59;5040506;28;20232;-75
2021/08/26 01:05:59;;;;;;;11.70;8.10;;;;;;;18.98;69.52;94910.81;5045450;28;20492;-74
2021/08/26 01:08:40;;;;;;;9.10;7.90;;;;;;;19.13;68.70;94908.53;5049342;28;20200;-75
2021/08/26 01:11:08;;;;;;;12.60;8.20;;;;;;;19.14;69.41;94906.66;5048854;28;20956;-74
2021/08/26 01:13:40;;;;;;;8.47;7.13;;;;;;;19.00;69.17;94916.59;5049192;28;20948;-76
2021/08/26 01:16:07;;;;;;;8.67;7.23;;;;;;;18.96;68.96;94908.47;5031841;28;20197;-75
2021/08/26 01:18:46;;;;;;;9.90;7.47;;;;;;;19.19;68.58;94904.66;5030507;28;20266;-73
2021/08/26 01:21:16;;;;;;;12.90;7.33;;;;;;;18.80;69.15;94904.66;5046233;28;20438;-75
2021/08/26 01:23:46;;;;;;;8.57;7.20;;;;;;;18.87;68.47;94894.38;5039745;28;20443;-73
2021/08/26 01:26:23;;;;;;;8.50;6.97;;;;;;;18.99;68.42;94886.63;5052556;28;20443;-75
2021/08/26 01:28:54;;;;;;;11.13;8.13;;;;;;;18.59;69.90;94893.03;5039962;28;20206;-73
2021/08/26 01:31:22;;;;;;;11.47;8.10;;;;;;;18.81;69.03;94887.63;5052805;28;20197;-74
2021/08/26 01:33:51;;;;;;;10.33;7.63;;;;;;;18.68;70.02;94901.81;5046568;28;20893;-74
2021/08/26 01:36:18;;;;;;;11.10;8.23;;;;;;;18.64;70.19;94895.53;5044623;28;20451;-74
2021/08/26 01:38:47;;;;;;;9.70;8.33;;;;;;;18.55;70.59;94891.25;5052501;28;20470;-75
2021/08/26 01:41:14;;;;;;;10.17;7.80;;;;;;;18.48;71.62;94906.84;5052057;28;20319;-76
2021/08/26 01:43:44;;;;;;;9.70;8.37;;;;;;;18.44;71.24;94901.34;5049653;28;20436;-75
2021/08/26 01:46:13;;;;;;;10.10;8.23;;;;;;;18.74;70.88;94908.53;5041957;28;20431;-74
2021/08/26 01:48:42;;;;;;;10.90;8.93;;;;;;;18.44;70.71;94900.56;5051468;28;20439;-73
2021/08/26 01:51:09;;;;;;;10.37;8.93;;;;;;;18.73;70.11;94912.28;5039118;28;20243;-74
2021/08/26 01:53:36;;;;;;;11.73;9.17;;;;;;;18.81;69.46;94895.59;5039081;28;20821;-74
2021/08/26 01:56:05;;;;;;;11.73;8.70;;;;;;;18.89;69.27;94902.81;5037238;28;20620;-75
2021/08/26 01:58:32;;;;;;;9.80;7.90;;;;;;;18.69;71.02;94908.66;5039945;28;20475;-74
2021/08/26 02:00:58;;;;;;;10.63;9.07;;;;;;;18.77;69.67;94894.66;5035453;28;20439;-73
2021/08/26 02:03:26;;;;;;;10.63;8.50;;;;;;;18.64;69.61;94884.91;5041918;28;20683;-74
2021/08/26 02:05:53;;;;;;;13.20;7.93;;;;;;;18.76;69.40;94901.03;5047396;28;20993;-74
2021/08/26 02:08:20;;;;;;;9.90;8.10;;;;;;;18.70;69.26;94910.22;5051521;28;21028;-74
2021/08/26 02:10:47;;;;;;;9.10;7.50;;;;;;;18.47;70.01;94911.34;5050463;28;20434;-74
2021/08/26 02:13:14;;;;;;;8.93;7.27;;;;;;;18.47;69.88;94895.44;5038668;28;20197;-74
2021/08/26 02:15:41;;;;;;;9.57;7.70;;;;;;;18.41;70.18;94901.94;5051360;28;20473;-73
2021/08/26 02:18:08;;;;;;;8.87;7.20;;;;;;;18.59;69.62;94900.97;5034201;28;20546;-73
2021/08/26 02:20:35;;;;;;;10.90;7.60;;;;;;;18.57;69.38;94897.84;5031066;28;20451;-73
2021/08/26 02:23:03;;;;;;;10.50;6.80;;;;;;;18.45;69.83;94897.59;5045462;28;20193;-74
2021/08/26 02:25:30;;;;;;;8.13;7.13;;;;;;;18.65;69.20;94901.63;5031306;28;20255;-73
2021/08/26 02:27:57;;;;;;;9.60;7.73;;;;;;;18.96;68.35;94884.56;5044935;28;20212;-73
2021/08/26 02:30:24;;;;;;;7.33;6.63;;;;;;;18.79;68.31;94889.03;5036192;28;21338;-73
2021/08/26 02:32:51;;;;;;;8.63;7.40;;;;;;;18.55;68.86;94860.22;5039970;28;21193;-73
2021/08/26 02:35:18;;;;;;;8.10;6.60;;;;;;;18.77;68.57;94878.72;5048502;28;20671;-73
2021/08/26 02:37:45;;;;;;;7.73;6.93;;;;;;;18.84;68.81;94873.75;5040585;28;20471;-72
2021/08/26 02:40:12;;;;;;;8.93;6.87;;;;;;;18.82;68.31;94883.91;5047402;28;20212;-74
2021/08/26 02:42:39;;;;;;;7.57;6.60;;;;;;;18.75;68.51;94875.59;5050980;28;20478;-73
2021/08/26 02:45:06;;;;;;;7.50;6.60;;;;;;;18.96;68.24;94876.59;5050855;28;20201;-74
2021/08/26 02:47:33;;;;;;;7.57;6.80;;;;;;;18.72;69.55;94884.16;5050658;28;20445;-74
2021/08/26 02:50:00;;;;;;;9.50;6.83;;;;;;;18.85;68.83;94875.31;5037867;28;20453;-74
2021/08/26 02:52:27;;;;;;;7.50;5.77;;;;;;;18.81;68.76;94889.53;5034193;28;20192;-74
2021/08/26 02:54:54;;;;;;;6.80;6.10;;;;;;;18.93;68.42;94874.56;5050949;28;20235;-74
2021/08/26 02:57:20;;;;;;;7.60;5.70;;;;;;;19.05;68.40;94869.44;5034383;28;20201;-74
2021/08/26 02:59:47;;;;;;;6.03;5.30;;;;;;;18.85;68.81;94870.00;5038698;28;20224;-74
2021/08/26 03:02:14;;;;;;;6.40;5.80;;;;;;;18.95;68.53;94872.41;5050053;28;20193;-74
2021/08/26 03:04:42;;;;;;;6.53;5.80;;;;;;;18.91;68.12;94855.50;5030806;28;20232;-72
2021/08/26 03:07:09;;;;;;;8.63;5.33;;;;;;;19.01;67.67;94884.41;5030180;28;20440;-74
2021/08/26 03:09:35;;;;;;;6.60;5.30;;;;;;;18.97;67.63;94872.88;5035632;28;20189;-73
2021/08/26 03:12:05;;;;;;;7.20;5.57;;;;;;;18.99;67.93;94876.00;5039541;28;20435;-73
2021/08/26 03:14:33;;;;;;;6.80;5.50;;;;;;;18.95;68.20;94874.25;5033966;28;20447;-73
2021/08/26 03:17:00;;;;;;;6.10;5.30;;;;;;;18.99;68.26;94869.91;5040351;28;20879;-76
2021/08/26 03:19:27;;;;;;;9.07;5.40;;;;;;;19.01;68.33;94868.50;5044320;28;20228;-74
2021/08/26 03:21:54;;;;;;;8.03;5.60;;;;;;;19.08;68.20;94874.16;5036600;28;20192;-73
2021/08/26 03:24:21;;;;;;;7.53;5.80;;;;;;;19.02;68.17;94864.75;5038993;28;20208;-73
2021/08/26 03:26:48;;;;;;;6.73;5.07;;;;;;;19.21;67.89;94881.19;5034087;28;20184;-74
2021/08/26 03:29:15;;;;;;;7.83;5.20;;;;;;;19.23;67.71;94875.59;5050443;28;20208;-76
2021/08/26 03:31:43;;;;;;;7.73;5.60;;;;;;;19.32;67.11;94867.66;5033471;28;20702;-75
2021/08/26 03:34:10;;;;;;;6.50;5.80;;;;;;;19.37;67.57;94859.53;5039605;28;20980;-74
2021/08/26 03:36:37;;;;;;;8.37;6.03;;;;;;;19.39;67.42;94873.31;5035092;28;20197;-74
2021/08/26 03:39:04;;;;;;;7.53;5.90;;;;;;;19.00;67.29;94872.25;5037736;28;20256;-74
2021/08/26 03:41:31;;;;;;;6.30;5.70;;;;;;;18.93;67.99;94866.59;5049462;28;20251;-74
2021/08/26 03:43:57;;;;;;;6.07;5.57;;;;;;;18.97;68.08;94864.91;5030654;28;20194;-74
2021/08/26 03:46:24;;;;;;;6.70;5.70;;;;;;;18.86;68.85;94860.97;5041256;28;20197;-73
2021/08/26 03:48:51;;;;;;;9.77;6.23;;;;;;;18.82;68.95;94881.25;5047709;28;20200;-74
2021/08/26 03:51:18;;;;;;;6.90;5.80;;;;;;;18.87;68.56;94853.75;5037975;28;20439;-72
2021/08/26 03:53:45;;;;;;;6.20;5.60;;;;;;;18.84;68.02;94865.78;5049476;28;20200;-73
2021/08/26 03:56:12;;;;;;;7.17;5.67;;;;;;;18.88;68.67;94858.78;5035923;28;20553;-73
2021/08/26 03:58:39;;;;;;;7.23;6.40;;;;;;;18.75;68.87;94859.66;5037132;28;20603;-73
2021/08/26 04:01:06;;;;;;;6.90;5.60;;;;;;;18.79;67.67;94865.16;5029540;28;20436;-72
2021/08/26 04:03:34;;;;;;;8.53;5.80;;;;;;;18.94;68.32;94862.09;5031023;28;20483;-73
2021/08/26 04:06:01;;;;;;;6.20;4.93;;;;;;;18.85;67.75;94867.34;5046923;28;20199;-74
2021/08/26 04:08:28;;;;;;;6.97;5.93;;;;;;;18.84;67.29;94868.44;5041089;28;20201;-73
2021/08/26 04:10:55;;;;;;;8.23;5.60;;;;;;;18.93;66.85;94863.16;5029719;28;20209;-74
2021/08/26 04:13:22;;;;;;;6.00;5.40;;;;;;;18.82;67.03;94844.06;5030349;28;20530;-74
2021/08/26 04:15:49;;;;;;;7.57;5.87;;;;;;;19.02;66.86;94871.94;5042208;28;20826;-72
2021/08/26 04:18:17;;;;;;;8.83;5.60;;;;;;;18.97;68.72;94866.78;5030111;28;20578;-74
2021/08/26 04:20:44;;;;;;;8.97;5.33;;;;;;;19.10;68.88;94866.63;5039343;28;20442;-75
2021/08/26 04:23:11;;;;;;;6.60;5.63;;;;;;;19.09;67.97;94870.41;5035177;28;20197;-73
2021/08/26 04:25:38;;;;;;;6.10;5.50;;;;;;;19.08;67.51;94874.16;5040513;28;20208;-74
2021/08/26 04:28:06;;;;;;;6.83;5.63;;;;;;;19.06;68.57;94871.03;5030214;28;20224;-73
2021/08/26 04:30:33;;;;;;;6.13;5.53;;;;;;;19.39;67.93;94873.31;5049795;28;20208;-72
2021/08/26 04:33:02;;;;;;;7.17;6.20;;;;;;;19.30;68.81;94875.13;5036662;28;20189;-72
2021/08/26 04:35:30;;;;;;;7.47;5.90;;;;;;;19.40;68.93;94883.63;5043687;28;20225;-74
2021/08/26 04:37:57;;;;;;;7.27;6.07;;;;;;;19.22;66.91;94884.63;5030774;28;20431;-71
2021/08/26 04:40:25;;;;;;;8.77;6.40;;;;;;;19.23;67.23;94880.91;5029599;28;20290;-72
2021/08/26 04:42:51;;;;;;;9.00;6.27;;;;;;;19.33;66.85;94890.47;5029840;28;20232;-73
2021/08/26 04:45:18;;;;;;;10.37;8.73;;;;;;;19.40;66.78;94869.53;5029248;28;20213;-73
2021/08/26 04:47:45;;;;;;;10.80;8.43;;;;;;;19.62;67.12;94877.38;5038421;28;20196;-73
2021/08/26 04:50:12;;;;;;;9.17;7.40;;;;;;;19.61;67.94;94865.19;5036146;28;20212;-74
2021/08/26 04:52:40;;;;;;;9.07;7.00;;;;;;;19.75;67.61;94871.13;5036172;28;20197;-73
2021/08/26 04:55:07;;;;;;;9.13;6.50;;;;;;;19.75;67.48;94855.19;5053731;28;20238;-73
2021/08/26 04:57:34;;;;;;;7.47;6.67;;;;;;;19.83;67.37;94852.53;5049582;28;20185;-72
2021/08/26 05:00:02;;;;;;;11.93;6.97;;;;;;;19.93;67.37;94849.56;5043399;28;20219;-72
2021/08/26 05:02:29;;;;;;;8.17;6.90;;;;;;;19.94;67.03;94848.44;5053588;28;20189;-77
2021/08/26 05:04:56;;;;;;;10.43;6.20;;;;;;;19.57;64.99;94845.66;5053346;28;20602;-73
2021/08/26 05:07:23;;;;;;;6.17;5.57;;;;;;;19.62;64.20;94848.16;5053182;28;20547;-71
2021/08/26 05:09:50;;;;;;;6.43;5.83;;;;;;;19.24;64.86;94842.63;5052978;28;20189;-72
2021/08/26 05:12:17;;;;;;;6.50;5.90;;;;;;;19.54;64.63;94854.25;5052695;28;20218;-75
2021/08/26 05:14:44;;;;;;;6.80;5.93;;;;;;;19.75;64.21;94849.88;5039327;28;20226;-74
2021/08/26 05:17:11;;;;;;;7.00;5.93;;;;;;;19.67;65.18;94848.00;5041146;28;20208;-73
2021/08/26 05:19:38;;;;;;;7.83;6.60;;;;;;;19.91;65.96;94858.94;5048174;28;20228;-73
2021/08/26 05:22:05;;;;;;;6.87;5.37;;;;;;;19.90;64.88;94854.72;5052700;28;20601;-74
2021/08/26 05:24:32;;;;;;;22.43;7.00;;;;;;;19.72;64.56;94866.44;5039689;28;20201;-72
2021/08/26 05:27:00;;;;;;;17.53;8.47;;;;;;;19.91;64.95;94861.59;5046144;28;20675;-73
2021/08/26 05:29:28;;;;;;;11.00;8.70;;;;;;;19.92;65.17;94865.81;5044778;28;20566;-74
2021/08/26 05:31:55;;;;;;;13.43;8.77;;;;;;;19.75;65.35;94865.81;5052457;28;20187;-72
2021/08/26 05:34:22;;;;;;;21.33;9.77;;;;;;;19.61;65.12;94843.94;5052994;28;20197;-75
2021/08/26 05:36:49;;;;;;;12.57;7.47;;;;;;;19.58;66.54;94863.16;5051199;28;20204;-72
2021/08/26 05:39:16;;;;;;;14.93;9.57;;;;;;;19.75;66.67;94855.19;5052359;28;20204;-73
2021/08/26 05:41:44;;;;;;;9.67;7.10;;;;;;;19.70;67.04;94844.72;5037524;28;20447;-73
2021/08/26 05:44:14;;;;;;;8.37;6.17;;;;;;;19.56;66.62;94852.06;5052454;28;20197;-73
2021/08/26 05:46:41;;;;;;;9.07;6.60;;;;;;;19.75;67.33;94845.34;5051748;28;20594;-74
2021/08/26 05:49:08;;;;;;;10.43;8.33;;;;;;;19.63;68.40;94820.47;5034057;28;20193;-73
2021/08/26 05:51:36;;;;;;;8.03;6.77;;;;;;;19.62;68.67;94830.31;5032634;28;20228;-73
2021/08/26 05:54:03;;;;;;;11.33;8.23;;;;;;;19.65;68.68;94824.38;5046234;28;20193;-74
2021/08/26 05:56:31;;;;;;;10.37;9.20;;;;;;;19.66;69.00;94804.69;5040853;28;20754;-72
2021/08/26 05:58:57;;;;;;;17.17;15.27;;;;;;;19.62;68.89;94824.22;5036372;28;20217;-74
2021/08/26 06:01:29;;;;;;;14.47;10.63;;;;;;;19.76;68.54;94836.25;5031742;28;20251;-73
2021/08/26 06:03:57;;;;;;;10.27;8.83;;;;;;;19.72;67.05;94847.84;5046021;28;20651;-72
2021/08/26 06:06:24;;;;;;;10.77;7.63;;;;;;;19.52;67.17;94856.44;5051643;28;20574;-72
2021/08/26 06:08:51;;;;;;;11.13;7.70;;;;;;;19.59;66.08;94862.06;5052182;28;20254;-79
2021/08/26 06:11:19;;;;;;;11.27;7.53;;;;;;;19.30;67.14;94848.56;5038148;28;20192;-73
2021/08/26 06:13:46;;;;;;;9.03;7.63;;;;;;;19.18;67.53;94847.28;5041151;28;20275;-74
2021/08/26 06:16:13;;;;;;;13.33;8.20;;;;;;;19.23;68.93;94837.63;5047995;28;20464;-74
2021/08/26 06:18:40;;;;;;;13.93;8.37;;;;;;;19.45;67.97;94858.78;5039358;28;20252;-72
2021/08/26 06:21:09;;;;;;;10.33;8.53;;;;;;;19.44;67.90;94849.22;5039077;28;20201;-74
2021/08/26 06:23:37;;;;;;;9.60;7.53;;;;;;;19.57;67.18;94859.72;5037130;28;20196;-72
2021/08/26 06:26:04;;;;;;;12.17;8.47;;;;;;;19.56;67.73;94865.34;5039326;28;20203;-73
2021/08/26 06:28:31;;;;;;;9.03;7.63;;;;;;;19.64;66.00;94857.38;5050342;28;20641;-74
2021/08/26 06:30:57;;;;;;;16.87;8.93;;;;;;;19.43;67.00;94866.28;5041190;28;20200;-75
2021/08/26 06:33:25;;;;;;;12.10;8.70;;;;;;;19.42;67.16;94843.44;5048138;28;20204;-73
2021/08/26 06:35:52;;;;;;;15.03;7.83;;;;;;;19.63;66.74;94847.06;5051032;28;20655;-73
2021/08/26 06:38:19;;;;;;;18.33;8.37;;;;;;;19.66;66.44;94835.78;5037400;28;20204;-72
2021/08/26 06:40:46;;;;;;;10.60;7.63;;;;;;;19.71;66.00;94822.34;5043542;28;20213;-74
2021/08/26 06:43:13;;;;;;;9.40;7.53;;;;;;;19.75;66.00;94812.66;5044460;28;20204;-73
2021/08/26 06:45:40;;;;;;;14.23;11.67;;;;;;;19.94;66.02;94837.81;5036927;28;20197;-74
2021/08/26 06:48:07;;;;;;;10.20;8.00;;;;;;;19.87;65.37;94839.41;5040204;28;20213;-76
2021/08/26 06:50:34;;;;;;;11.20;7.87;;;;;;;19.78;66.22;94846.59;5034910;28;20209;-72
2021/08/26 06:53:01;;;;;;;11.10;8.33;;;;;;;19.78;66.06;94844.69;5051596;28;20200;-71
2021/08/26 06:55:28;;;;;;;11.90;7.63;;;;;;;19.90;65.51;94841.41;5050803;28;20193;-73
2021/08/26 06:57:55;;;;;;;8.73;7.83;;;;;;;19.55;66.71;94845.16;5044708;28;20702;-74
2021/08/26 07:00:23;;;;;;;9.43;8.20;;;;;;;19.46;66.80;94842.53;5031193;28;20229;-72
2021/08/26 07:02:51;;;;;;;8.60;7.40;;;;;;;19.74;64.88;94827.81;5036442;28;20200;-74
2021/08/26 07:05:18;;;;;;;9.67;8.10;;;;;;;19.75;64.51;94844.56;5051045;28;20622;-75
2021/08/26 07:07:45;;;;;;;9.73;8.40;;;;;;;19.85;65.30;94849.56;5047348;28;20190;-73
2021/08/26 07:10:12;;;;;;;9.87;7.63;;;;;;;19.68;65.49;94845.03;5041724;28;20195;-72
2021/08/26 07:12:39;;;;;;;9.87;8.20;;;;;;;19.96;65.17;94846.25;5049554;28;20551;-73
2021/08/26 07:15:06;;;;;;;10.17;8.73;;;;;;;20.25;64.52;94842.97;5030975;28;20203;-75
2021/08/26 07:17:36;;;;;;;11.00;7.73;;;;;;;20.17;63.53;94843.75;5045755;28;20634;-74
2021/08/26 07:20:05;;;;;;;11.83;7.77;;;;;;;19.87;65.31;94839.41;5050818;28;20228;-73
2021/08/26 07:22:32;;;;;;;10.40;7.70;;;;;;;20.21;65.29;94847.34;5050324;28;20246;-71
2021/08/26 07:24:59;;;;;;;8.63;7.50;;;;;;;20.40;64.65;94845.09;5050410;28;20189;-74
2021/08/26 07:27:26;;;;;;;10.13;7.77;;;;;;;20.36;64.58;94849.50;5050048;28;20200;-73
2021/08/26 07:29:53;;;;;;;8.30;6.83;;;;;;;20.48;64.74;94828.34;5036449;28;20201;-72
2021/08/26 07:32:20;;;;;;;8.03;7.07;;;;;;;20.57;63.98;94823.75;5050129;28;20296;-75
2021/08/26 07:34:47;;;;;;;10.77;8.03;;;;;;;20.46;63.93;94822.53;5050538;28;20196;-75
2021/08/26 07:37:14;;;;;;;11.20;7.77;;;;;;;20.45;63.89;94826.31;5050768;28;20671;-73
2021/08/26 07:39:41;;;;;;;10.73;8.47;;;;;;;20.38;64.02;94835.88;5050712;28;20220;-75
2021/08/26 07:42:08;;;;;;;11.50;7.47;;;;;;;20.24;62.87;94849.38;5049624;28;20239;-73
2021/08/26 07:44:36;;;;;;;18.23;8.60;;;;;;;20.31;62.46;94852.31;5039149;28;20580;-72
2021/08/26 07:47:04;;;;;;;12.43;8.87;;;;;;;20.43;62.92;94844.47;5029877;28;20197;-75
2021/08/26 07:49:31;;;;;;;12.00;8.47;;;;;;;20.33;61.57;94847.47;5031872;28;20300;-74
2021/08/26 07:51:58;;;;;;;10.23;8.50;;;;;;;20.40;62.24;94834.44;5043064;28;20694;-73
2021/08/26 07:54:25;;;;;;;12.93;7.90;;;;;;;20.74;62.93;94829.03;5050031;28;20689;-72
2021/08/26 07:56:51;;;;;;;12.17;7.00;;;;;;;20.26;61.81;94844.50;5050444;28;20571;-74
2021/08/26 07:59:18;;;;;;;8.47;6.60;;;;;;;20.47;61.13;94839.31;5046246;28;20221;-74
2021/08/26 08:01:46;;;;;;;12.43;7.43;;;;;;;20.33;60.57;94834.16;5040532;28;20667;-74
2021/08/26 08:04:13;;;;;;;9.73;6.90;;;;;;;20.26;61.31;94844.50;5049584;28;20184;-74
2021/08/26 08:06:40;;;;;;;11.00;7.20;;;;;;;20.35;61.58;94836.50;5040766;28;20205;-73
2021/08/26 08:09:07;;;;;;;10.73;7.57;;;;;;;20.21;61.54;94836.72;5029465;28;20204;-73
2021/08/26 08:11:34;;;;;;;10.17;7.83;;;;;;;20.38;61.05;94825.25;5029092;28;20209;-76
2021/08/26 08:14:02;;;;;;;9.67;7.03;;;;;;;20.47;60.01;94808.16;5029572;28;20189;-75
2021/08/26 08:16:30;;;;;;;9.40;7.13;;;;;;;20.60;60.21;94817.03;5046275;28;20283;-74
2021/08/26 08:18:58;;;;;;;10.73;7.70;;;;;;;20.89;62.20;94803.72;5039882;28;20225;-73
2021/08/26 08:21:24;;;;;;;13.73;7.77;;;;;;;20.94;62.91;94808.88;5030923;28;20204;-74
2021/08/26 08:23:52;;;;;;;11.87;8.03;;;;;;;21.12;61.81;94811.13;5041882;28;20663;-74
2021/08/26 08:26:18;;;;;;;14.43;8.47;;;;;;;21.33;59.82;94807.72;5043403;28;20673;-74
2021/08/26 08:28:45;;;;;;;13.50;8.40;;;;;;;21.17;61.50;94804.06;5052910;28;20196;-71
2021/08/26 08:31:13;;;;;;;11.07;9.07;;;;;;;21.57;60.59;94813.94;5053381;28;20637;-74
2021/08/26 08:33:43;;;;;;;12.00;9.30;;;;;;;21.43;61.24;94817.97;5053228;28;20204;-76
2021/08/26 08:36:10;;;;;;;12.00;9.07;;;;;;;21.42;61.75;94819.88;5041690;28;20200;-74
2021/08/26 08:38:37;;;;;;;12.43;9.10;;;;;;;21.47;60.47;94826.91;5050666;28;20192;-71
2021/08/26 08:41:05;;;;;;;10.83;8.83;;;;;;;21.26;59.95;94818.13;5052489;28;20240;-72
2021/08/26 08:43:36;;;;;;;13.27;8.87;;;;;;;21.06;60.43;94795.66;5039238;28;20197;-75
2021/08/26 08:46:06;;;;;;;9.97;8.33;;;;;;;21.05;60.90;94821.53;5052522;28;20196;-72
2021/08/26 08:48:35;;;;;;;11.77;8.43;;;;;;;21.17;61.37;94825.38;5052997;28;20200;-74
2021/08/26 08:51:03;;;;;;;12.33;9.57;;;;;;;21.16;61.66;94835.25;5033101;28;20189;-73
2021/08/26 08:53:31;;;;;;;12.37;9.90;;;;;;;21.00;60.27;94839.59;5045608;28;20196;-71
2021/08/26 08:55:58;;;;;;;13.07;8.40;;;;;;;20.89;61.14;94847.09;5047999;28;20185;-73
2021/08/26 08:58:24;;;;;;;13.87;9.43;;;;;;;20.83;61.80;94843.06;5044005;28;20208;-74
2021/08/26 09:00:52;;;;;;;11.97;8.50;;;;;;;20.98;61.88;94845.19;5052432;28;20212;-75
2021/08/26 09:03:19;;;;;;;11.10;9.13;;;;;;;20.93;62.71;94848.03;5053125;28;20291;-75
2021/08/26 09:05:55;;;;;;;15.97;10.03;;;;;;;20.82;63.43;94836.16;5051047;28;20196;-72
2021/08/26 09:08:23;;;;;;;11.80;10.30;;;;;;;20.91;63.41;94846.81;5042203;28;20204;-74
2021/08/26 09:10:54;;;;;;;16.13;9.53;;;;;;;20.92;63.79;94840.38;5051782;28;20196;-75
2021/08/26 09:13:32;;;;;;;14.37;9.17;;;;;;;21.06;63.44;94835.63;5034159;28;20209;-75
2021/08/26 09:16:00;;;;;;;14.03;9.93;;;;;;;21.00;63.50;94835.00;5048875;28;20262;-75
2021/08/26 09:18:28;;;;;;;20.60;10.30;;;;;;;21.14;62.55;94838.25;5052706;28;20662;-75
2021/08/26 09:20:57;;;;;;;16.40;10.23;;;;;;;21.19;61.74;94826.59;5052108;28;20338;-76
2021/08/26 09:23:29;;;;;;;13.50;9.07;;;;;;;21.33;60.61;94829.81;5034524;28;20201;-74
2021/08/26 09:26:22;;;;;;;11.13;8.87;;;;;;;21.43;59.76;94833.97;5043366;28;20200;-72
2021/08/26 09:28:52;;;;;;;12.63;9.50;;;;;;;21.20;60.69;94835.38;5039548;28;20279;-75
2021/08/26 09:31:21;;;;;;;15.17;9.47;;;;;;;21.44;60.27;94814.22;5038937;28;20193;-74
2021/08/26 09:34:01;;;;;;;14.37;10.20;;;;;;;21.53;60.79;94830.94;5039291;28;20238;-73
2021/08/26 09:36:32;;;;;;;15.23;10.47;;;;;;;21.33;62.07;94823.72;5052461;28;20230;-72
2021/08/26 09:39:04;;;;;;;15.07;9.27;;;;;;;21.43;61.67;94834.75;5031125;28;20264;-75
2021/08/26 09:41:46;;;;;;;15.80;9.73;;;;;;;21.64;60.58;94840.13;5045254;28;20247;-74
2021/08/26 09:44:18;;;;;;;14.47;9.90;;;;;;;21.71;60.48;94845.69;5053396;28;20202;-72
2021/08/26 09:46:48;;;;;;;14.00;9.60;;;;;;;21.79;60.39;94847.53;5051251;28;20717;-74
2021/08/26 09:49:17;;;;;;;13.47;10.57;;;;;;;21.80;60.01;94859.78;5052212;28;20197;-70
2021/08/26 09:52:00;;;;;;;15.87;11.03;;;;;;;21.69;61.17;94851.38;5052071;28;20231;-74
2021/08/26 09:54:29;;;;;;;14.73;10.27;;;;;;;21.42;62.23;94848.41;5032109;28;20185;-73
2021/08/26 09:56:57;;;;;;;11.10;9.97;;;;;;;21.36;62.92;94855.81;5031488;28;20197;-72
2021/08/26 09:59:44;;;;;;;12.73;9.60;;;;;;;21.76;62.06;94853.50;5031813;28;20193;-74
2021/08/26 10:02:11;;;;;;;19.93;9.83;;;;;;;21.78;62.42;94852.06;5045512;28;20250;-73
2021/08/26 10:04:40;;;;;;;81.00;18.17;;;;;;;21.56;63.61;94846.28;5038218;28;20188;-73
2021/08/26 10:07:07;;;;;;;24.03;11.03;;;;;;;21.62;63.25;94848.41;5039322;28;20224;-73
2021/08/26 10:09:37;;;;;;;12.67;10.13;;;;;;;21.77;62.95;94844.41;5050883;28;20197;-75
2021/08/26 10:12:06;;;;;;;12.47;10.23;;;;;;;21.92;62.86;94846.47;5050882;28;20625;-72
2021/08/26 10:14:33;;;;;;;15.37;11.90;;;;;;;21.90;63.18;94840.69;5047404;28;20224;-70
2021/08/26 10:17:01;;;;;;;13.97;12.10;;;;;;;22.08;62.78;94828.75;5041297;28;20196;-71
2021/08/26 10:19:28;;;;;;;14.30;10.67;;;;;;;22.19;61.43;94832.56;5051840;28;20284;-74
2021/08/26 10:21:55;;;;;;;15.43;11.03;;;;;;;22.33;60.01;94833.06;5051511;28;20282;-75
2021/08/26 10:24:23;;;;;;;15.23;10.67;;;;;;;22.35;60.72;94841.53;5039919;28;20189;-76
2021/08/26 10:26:58;;;;;;;18.23;13.83;;;;;;;22.17;61.20;94832.91;5048336;28;20196;-73
2021/08/26 10:29:25;;;;;;;19.77;16.70;;;;;;;22.47;60.78;94814.84;5035558;28;20209;-69
2021/08/26 10:31:58;;;;;;;17.53;15.00;;;;;;;22.38;61.06;94835.53;5050954;28;20201;-71
2021/08/26 10:34:27;;;;;;;20.67;15.50;;;;;;;22.17;61.97;94846.25;5034766;28;20219;-75
2021/08/26 10:36:54;;;;;;;15.70;12.50;;;;;;;22.07;59.35;94849.34;5034148;28;20229;-73
2021/08/26 10:39:25;;;;;;;16.03;12.40;;;;;;;22.14;60.52;94840.78;5051259;28;20250;-72
2021/08/26 10:41:52;;;;;;;17.67;12.23;;;;;;;22.23;60.90;94832.69;5048394;28;20718;-73
2021/08/26 10:44:19;;;;;;;15.00;12.33;;;;;;;21.93;60.17;94842.72;5031487;28;20189;-75
2021/08/26 10:46:52;;;;;;;17.63;12.17;;;;;;;22.14;60.45;94822.09;5045542;28;20274;-74
2021/08/26 10:49:20;;;;;;;17.47;12.33;;;;;;;22.48;60.29;94831.66;5043747;28;20200;-76
2021/08/26 10:51:50;;;;;;;16.83;13.10;;;;;;;22.32;60.20;94823.50;5043066;28;20193;-75
2021/08/26 10:54:25;;;;;;;18.47;13.33;;;;;;;22.32;60.02;94828.81;5050907;28;20200;-74
2021/08/26 10:56:53;;;;;;;18.27;10.97;;;;;;;22.85;58.66;94841.28;5050336;28;20196;-75
2021/08/26 10:59:33;;;;;;;61.50;14.97;;;;;;;23.07;57.77;94830.94;5046398;28;20193;-75
2021/08/26 11:02:00;;;;;;;15.67;11.73;;;;;;;22.97;56.70;94826.03;5042920;28;20662;-74
2021/08/26 11:04:33;;;;;;;17.93;12.23;;;;;;;23.41;56.70;94832.38;5036883;28;20639;-75
2021/08/26 11:07:00;;;;;;;13.83;12.07;;;;;;;23.65;55.63;94815.50;5038936;28;20200;-75
2021/08/26 11:09:32;;;;;;;17.03;13.80;;;;;;;23.10;55.88;94821.50;5048234;28;20199;-75
2021/08/26 11:12:23;;;;;;;16.97;12.70;;;;;;;23.46;55.39;94812.66;5040011;28;20225;-75
2021/08/26 11:14:50;;;;;;;17.03;13.10;;;;;;;23.60;55.83;94807.72;5036480;28;20208;-73
2021/08/26 11:17:26;;;;;;;20.10;13.40;;;;;;;23.87;56.89;94796.22;5040136;28;20609;-69
2021/08/26 11:19:54;;;;;;;16.80;14.40;;;;;;;24.28;55.19;94785.16;5047294;28;20685;-73
2021/08/26 11:22:21;;;;;;;16.97;13.30;;;;;;;24.38;53.83;94781.19;5040775;28;20193;-75
2021/08/26 11:24:52;;;;;;;19.17;15.73;;;;;;;24.62;54.20;94779.09;5032169;28;20293;-76
2021/08/26 11:27:28;;;;;;;16.67;13.67;;;;;;;24.86;54.60;94770.91;5050096;28;20216;-77
2021/08/26 11:30:18;;;;;;;16.43;14.53;;;;;;;25.25;53.33;94768.31;5050570;28;20214;-74
2021/08/26 11:32:44;;;;;;;19.43;15.13;;;;;;;25.12;52.64;94761.53;5048972;28;20570;-76
2021/08/26 11:35:11;;;;;;;20.20;14.83;;;;;;;25.33;51.40;94765.44;5049605;28;20193;-74
2021/08/26 11:37:39;;;;;;;18.57;14.83;;;;;;;25.60;51.77;94758.38;5050411;28;20203;-75